Time;durP1;ratioP1;P1;durP2;ratioP2;P2;SDS_P1;SDS_P2;PMS_P1;PMS_P2;Temp;Humidity;BMP_temperature;BMP_pressure;BME280_temperature;BME280_humidity;BME280_pressure;Samples;Min_cycle;Max_cycle;Signal;HPM_P1;HPM_P2
2023/09/02 00:01:36;;;;;;;9.20;5.30;;;16.60;99.90;;;;;;5053779;28;20546;-59
2023/09/02 00:04:04;;;;;;;8.03;5.50;;;16.60;99.90;;;;;;5053447;28;20446;-61
2023/09/02 00:06:30;;;;;;;5.53;5.03;;;16.60;99.90;;;;;;5053001;28;20439;-61
2023/09/02 00:08:57;;;;;;;6.87;5.07;;;16.70;99.90;;;;;;5052654;28;20440;-60
2023/09/02 00:11:25;;;;;;;7.60;6.33;;;16.60;99.90;;;;;;5052409;28;20984;-60
2023/09/02 00:13:52;;;;;;;5.43;4.93;;;16.60;99.90;;;;;;5052880;28;20446;-60
2023/09/02 00:16:19;;;;;;;5.17;4.73;;;16.60;99.90;;;;;;5053396;28;20444;-61
2023/09/02 00:18:46;;;;;;;6.03;5.53;;;16.60;99.90;;;;;;5053042;28;20447;-60
2023/09/02 00:21:13;;;;;;;5.37;4.87;;;16.60;99.90;;;;;;5052827;28;20509;-61
2023/09/02 00:23:43;;;;;;;5.03;4.53;;;16.60;99.90;;;;;;5052864;28;20455;-60
2023/09/02 00:26:10;;;;;;;5.40;5.00;;;16.60;99.90;;;;;;5054296;28;20424;-60
2023/09/02 00:28:38;;;;;;;5.30;4.90;;;16.60;99.90;;;;;;5056365;28;20440;-61
2023/09/02 00:31:05;;;;;;;5.53;5.03;;;16.60;99.90;;;;;;5057453;28;20464;-59
2023/09/02 00:33:32;;;;;;;5.80;5.27;;;16.60;99.90;;;;;;5057635;28;20458;-59
2023/09/02 00:35:58;;;;;;;5.50;5.00;;;16.60;99.90;;;;;;5057462;28;20431;-60
2023/09/02 00:38:25;;;;;;;5.80;5.30;;;16.60;99.90;;;;;;5056958;28;20487;-61
2023/09/02 00:41:00;;;;;;;5.23;4.73;;;16.60;99.90;;;;;;5056615;28;20973;-60
2023/09/02 00:43:28;;;;;;;6.20;5.67;;;16.60;99.90;;;;;;5056716;28;20423;-59
2023/09/02 00:45:56;;;;;;;6.27;5.50;;;16.50;99.90;;;;;;5056936;28;20435;-60
2023/09/02 00:48:23;;;;;;;5.70;5.17;;;16.50;99.90;;;;;;5058334;28;20436;-59
2023/09/02 00:50:50;;;;;;;5.60;5.07;;;16.50;99.90;;;;;;5056477;28;20471;-59
2023/09/02 00:53:18;;;;;;;6.20;5.60;;;16.60;99.90;;;;;;5056461;28;20447;-60
2023/09/02 00:55:46;;;;;;;5.30;4.63;;;16.50;99.90;;;;;;5056070;28;20481;-62
2023/09/02 00:58:13;;;;;;;6.73;5.40;;;16.50;99.90;;;;;;5056290;28;20475;-60
2023/09/02 01:00:40;;;;;;;6.70;6.10;;;16.50;99.90;;;;;;5056044;28;20978;-61
2023/09/02 01:03:09;;;;;;;6.73;6.13;;;16.50;99.90;;;;;;5056344;28;20451;-60
2023/09/02 01:05:36;;;;;;;4.93;4.43;;;16.40;99.90;;;;;;5056123;28;20957;-60
2023/09/02 01:08:04;;;;;;;6.20;5.60;;;16.40;99.90;;;;;;5056082;28;20823;-60
2023/09/02 01:10:34;;;;;;;6.70;5.57;;;16.40;99.90;;;;;;5056172;28;20487;-60
2023/09/02 01:13:01;;;;;;;6.30;5.57;;;16.40;99.90;;;;;;5056540;28;20444;-59
2023/09/02 01:15:28;;;;;;;6.77;6.10;;;16.40;99.90;;;;;;5056338;28;20470;-59
2023/09/02 01:17:55;;;;;;;6.00;5.40;;;16.40;99.90;;;;;;5056477;28;20484;-59
2023/09/02 01:20:25;;;;;;;5.90;5.40;;;16.40;99.90;;;;;;5056720;28;20463;-60
2023/09/02 01:23:19;;;;;;;5.53;5.03;;;16.40;99.90;;;;;;5057098;28;20428;-60
2023/09/02 01:26:14;;;;;;;5.13;4.67;;;16.40;99.90;;;;;;5056529;28;20440;-60
2023/09/02 01:28:45;;;;;;;5.77;5.27;;;16.40;99.90;;;;;;5055814;28;20428;-60
2023/09/02 01:31:15;;;;;;;5.13;4.73;;;16.40;99.90;;;;;;5056421;28;20463;-59
2023/09/02 01:33:42;;;;;;;6.90;5.63;;;16.40;99.90;;;;;;5056481;28;20466;-60
2023/09/02 01:36:12;;;;;;;5.80;5.40;;;16.40;99.90;;;;;;5056267;28;20440;-59
2023/09/02 01:38:42;;;;;;;6.00;5.33;;;16.40;99.90;;;;;;5054788;28;21024;-60
2023/09/02 01:41:10;;;;;;;5.77;4.80;;;16.40;99.90;;;;;;5055659;28;20471;-60
2023/09/02 01:43:39;;;;;;;5.80;4.87;;;16.40;99.90;;;;;;5055880;28;20436;-60
2023/09/02 01:46:08;;;;;;;7.17;5.70;;;16.40;99.90;;;;;;5055633;28;20436;-59
2023/09/02 01:48:36;;;;;;;7.20;5.60;;;16.40;99.90;;;;;;5055520;28;20440;-59
2023/09/02 01:51:03;;;;;;;5.30;4.90;;;16.40;99.90;;;;;;5055050;28;20464;-61
2023/09/02 01:53:30;;;;;;;5.87;5.37;;;16.40;99.90;;;;;;5055688;28;20440;-59
2023/09/02 01:55:57;;;;;;;5.67;5.20;;;16.40;99.90;;;;;;5055636;28;20816;-60
2023/09/02 01:58:24;;;;;;;6.60;5.37;;;16.40;99.90;;;;;;5055034;28;20475;-60
2023/09/02 02:00:51;;;;;;;5.20;4.70;;;16.40;99.90;;;;;;5055441;28;20510;-60
2023/09/02 02:03:25;;;;;;;5.87;5.27;;;16.50;99.90;;;;;;5054871;28;20984;-61
2023/09/02 02:05:54;;;;;;;5.57;5.10;;;16.40;99.90;;;;;;5055206;28;20755;-60
2023/09/02 02:08:29;;;;;;;5.50;5.00;;;16.40;99.90;;;;;;5054773;28;20926;-60
2023/09/02 02:10:59;;;;;;;7.10;5.40;;;16.40;99.90;;;;;;5054789;28;20498;-61
2023/09/02 02:13:26;;;;;;;6.77;5.10;;;16.50;99.90;;;;;;5054796;28;20443;-59
2023/09/02 02:15:53;;;;;;;5.77;5.00;;;16.50;99.90;;;;;;5054934;28;20463;-60
2023/09/02 02:18:21;;;;;;;4.77;4.27;;;16.40;99.90;;;;;;5055698;28;20480;-60
2023/09/02 02:20:58;;;;;;;5.70;4.37;;;16.50;99.90;;;;;;5056024;28;20460;-59
2023/09/02 02:23:24;;;;;;;6.83;5.60;;;16.40;99.90;;;;;;5057126;28;20789;-61
2023/09/02 02:25:51;;;;;;;6.53;4.30;;;16.40;99.90;;;;;;5055626;28;20440;-58
2023/09/02 02:28:19;;;;;;;5.03;4.60;;;16.40;99.90;;;;;;5054967;28;20432;-59
2023/09/02 02:30:45;;;;;;;5.07;4.67;;;16.40;99.90;;;;;;5054810;28;20468;-60
2023/09/02 02:33:12;;;;;;;4.90;4.50;;;16.30;99.90;;;;;;5054782;28;20462;-59
2023/09/02 02:35:40;;;;;;;5.77;4.30;;;16.30;99.90;;;;;;5056540;28;20447;-60
2023/09/02 02:38:07;;;;;;;5.93;5.37;;;16.30;99.90;;;;;;5065449;28;20487;-67
2023/09/02 02:40:33;;;;;;;5.53;5.00;;;16.40;99.90;;;;;;5074822;28;20456;-64
2023/09/02 02:43:00;;;;;;;5.40;4.90;;;16.40;99.90;;;;;;5074488;28;20451;-61
2023/09/02 02:45:27;;;;;;;5.83;5.30;;;16.40;99.90;;;;;;5058162;28;20952;-60
2023/09/02 02:47:54;;;;;;;4.83;4.43;;;16.40;99.90;;;;;;5055702;28;20440;-60
2023/09/02 02:50:21;;;;;;;6.70;6.10;;;16.40;99.90;;;;;;5054538;28;20468;-60
2023/09/02 02:52:49;;;;;;;6.93;6.23;;;16.40;99.90;;;;;;5055774;28;20449;-59
2023/09/02 02:55:16;;;;;;;5.30;4.80;;;16.40;99.90;;;;;;5054697;28;20454;-60
2023/09/02 02:57:44;;;;;;;5.17;4.77;;;16.40;99.90;;;;;;5053712;28;20855;-59
2023/09/02 03:00:11;;;;;;;5.43;4.93;;;16.40;99.90;;;;;;5054312;28;20467;-59
2023/09/02 03:02:38;;;;;;;5.93;4.97;;;16.40;99.90;;;;;;5054481;28;20440;-60
2023/09/02 03:05:05;;;;;;;6.87;5.97;;;16.40;99.90;;;;;;5054607;28;20440;-58
2023/09/02 03:07:32;;;;;;;10.00;5.10;;;16.40;99.90;;;;;;5054201;28;20934;-60
2023/09/02 03:10:00;;;;;;;5.40;4.80;;;16.40;99.90;;;;;;5054488;28;20472;-60
2023/09/02 03:12:27;;;;;;;6.80;4.83;;;16.40;99.90;;;;;;5054546;28;20436;-59
2023/09/02 03:14:54;;;;;;;5.50;4.73;;;16.40;99.90;;;;;;5055136;28;20440;-60
2023/09/02 03:17:22;;;;;;;5.80;4.13;;;16.40;99.90;;;;;;5054250;28;20476;-59
2023/09/02 03:19:49;;;;;;;5.23;4.13;;;16.40;99.90;;;;;;5053902;28;20470;-60
2023/09/02 03:22:16;;;;;;;4.83;4.33;;;16.40;99.90;;;;;;5053849;28;20436;-60
2023/09/02 03:24:43;;;;;;;5.10;4.33;;;16.40;99.90;;;;;;5054025;28;20822;-59
2023/09/02 03:27:11;;;;;;;6.70;4.57;;;16.40;99.90;;;;;;5053839;28;20444;-59
2023/09/02 03:29:37;;;;;;;5.27;4.73;;;16.40;99.90;;;;;;5053977;28;20436;-60
2023/09/02 03:32:04;;;;;;;5.43;4.50;;;16.40;99.90;;;;;;5054768;28;20450;-60
2023/09/02 03:34:31;;;;;;;5.40;4.30;;;16.50;99.90;;;;;;5054989;28;20446;-60
2023/09/02 03:37:01;;;;;;;5.20;4.70;;;16.40;99.90;;;;;;5055004;28;20439;-59
2023/09/02 03:39:28;;;;;;;4.70;4.20;;;16.40;99.90;;;;;;5054956;28;20479;-60
2023/09/02 03:41:55;;;;;;;4.57;4.17;;;16.40;99.90;;;;;;5053784;28;20459;-59
2023/09/02 03:44:23;;;;;;;4.97;4.47;;;16.40;99.90;;;;;;5053798;28;20976;-59
2023/09/02 03:46:51;;;;;;;5.33;4.90;;;16.40;99.90;;;;;;5054380;28;20444;-59
2023/09/02 03:49:18;;;;;;;5.70;5.20;;;16.30;99.90;;;;;;5054395;28;20442;-59
2023/09/02 03:51:45;;;;;;;5.20;4.70;;;16.30;99.90;;;;;;5053685;28;20467;-60
2023/09/02 03:54:11;;;;;;;5.40;4.60;;;16.30;99.90;;;;;;5053995;28;20459;-59
2023/09/02 03:56:39;;;;;;;4.90;4.50;;;16.30;99.90;;;;;;5053968;28;20440;-59
2023/09/02 03:59:07;;;;;;;4.83;4.43;;;16.30;99.90;;;;;;5053723;28;20479;-59
2023/09/02 04:01:35;;;;;;;5.60;5.10;;;16.30;99.90;;;;;;5053286;28;20471;-60
2023/09/02 04:04:02;;;;;;;5.60;5.10;;;16.30;99.90;;;;;;5053635;28;20447;-61
2023/09/02 04:06:29;;;;;;;4.50;4.10;;;16.20;99.90;;;;;;5053323;28;20443;-60
2023/09/02 04:12:09;;;;;;;7.10;4.80;;;16.20;99.90;;;;;;5177004;27;20539;-61
2023/09/02 04:14:36;;;;;;;9.60;4.20;;;16.20;99.90;;;;;;5174549;27;20435;-60
2023/09/02 04:17:03;;;;;;;5.70;4.70;;;16.20;99.90;;;;;;5174182;27;20431;-60
2023/09/02 04:19:30;;;;;;;5.07;4.67;;;16.20;99.90;;;;;;5172970;27;20822;-60
2023/09/02 04:21:57;;;;;;;5.30;4.80;;;16.20;99.90;;;;;;5152509;27;20819;-61
2023/09/02 04:24:24;;;;;;;6.33;5.47;;;16.20;99.90;;;;;;5153047;27;20448;-61
2023/09/02 04:26:52;;;;;;;5.27;4.77;;;16.10;99.90;;;;;;5154296;27;20440;-62
2023/09/02 04:29:20;;;;;;;6.13;4.53;;;16.10;99.90;;;;;;5152257;27;20444;-60
2023/09/02 04:31:47;;;;;;;5.10;4.70;;;16.10;99.90;;;;;;5152582;27;20490;-60
2023/09/02 04:34:13;;;;;;;5.17;4.77;;;16.10;99.90;;;;;;5152207;27;20945;-60
2023/09/02 04:36:40;;;;;;;4.90;4.50;;;16.00;99.90;;;;;;5152213;27;20447;-61
2023/09/02 04:39:07;;;;;;;6.20;5.60;;;16.10;99.90;;;;;;5151799;27;20443;-60
2023/09/02 04:41:34;;;;;;;5.97;4.80;;;16.10;99.90;;;;;;5152973;27;20467;-60
2023/09/02 04:44:00;;;;;;;5.70;5.20;;;16.10;99.90;;;;;;5152679;27;20440;-61
2023/09/02 04:46:29;;;;;;;6.00;5.50;;;16.00;99.90;;;;;;5169124;22;20431;-58
2023/09/02 04:48:55;;;;;;;6.00;5.27;;;16.00;99.90;;;;;;5090074;28;20426;-60
2023/09/02 04:51:22;;;;;;;5.07;4.67;;;16.00;99.90;;;;;;5089864;28;20482;-60
2023/09/02 04:53:49;;;;;;;5.13;4.50;;;16.00;99.90;;;;;;5090335;28;20439;-59
2023/09/02 04:56:16;;;;;;;5.53;5.03;;;16.00;99.90;;;;;;5089597;28;20446;-60
2023/09/02 04:58:43;;;;;;;6.27;5.03;;;16.00;99.90;;;;;;5069577;28;20454;-59
2023/09/02 05:01:11;;;;;;;5.03;4.63;;;16.00;99.90;;;;;;5069228;28;20450;-59
2023/09/02 05:03:39;;;;;;;9.13;5.57;;;15.90;99.90;;;;;;5069533;28;20444;-59
2023/09/02 05:06:08;;;;;;;4.90;4.50;;;16.00;99.90;;;;;;5069993;28;20530;-59
2023/09/02 05:08:34;;;;;;;5.43;4.93;;;16.00;99.90;;;;;;5069638;28;20471;-59
2023/09/02 05:11:03;;;;;;;6.93;5.10;;;16.00;99.90;;;;;;5069956;28;20525;-59
2023/09/02 05:13:30;;;;;;;7.80;5.57;;;15.90;99.90;;;;;;5069822;28;20447;-59
2023/09/02 05:15:57;;;;;;;4.87;4.47;;;16.00;99.90;;;;;;5069322;28;20494;-59
2023/09/02 05:18:24;;;;;;;6.10;4.83;;;16.00;99.90;;;;;;5069634;28;20460;-59
2023/09/02 05:20:54;;;;;;;5.70;5.20;;;16.00;99.90;;;;;;5069731;28;20467;-59
2023/09/02 05:23:21;;;;;;;5.83;5.10;;;16.10;99.90;;;;;;5057550;28;20515;-59
2023/09/02 05:25:54;;;;;;;5.20;4.70;;;16.20;99.90;;;;;;5056646;28;21003;-60
2023/09/02 05:28:21;;;;;;;5.80;5.30;;;16.20;99.90;;;;;;5056178;28;20831;-61
2023/09/02 05:30:48;;;;;;;5.40;4.90;;;16.30;99.90;;;;;;5056795;28;20563;-59
2023/09/02 05:33:16;;;;;;;4.90;4.50;;;16.30;99.90;;;;;;5056733;28;20447;-60
2023/09/02 05:35:43;;;;;;;4.73;4.20;;;16.40;99.90;;;;;;5057198;28;20444;-60
2023/09/02 05:38:11;;;;;;;8.40;4.90;;;16.50;99.90;;;;;;5056416;28;20914;-59
2023/09/02 05:40:41;;;;;;;4.97;4.50;;;16.50;99.90;;;;;;5056630;28;20467;-61
2023/09/02 05:43:08;;;;;;;5.40;4.83;;;16.60;99.90;;;;;;5056342;28;20462;-60
2023/09/02 05:45:35;;;;;;;4.60;4.10;;;16.70;99.90;;;;;;5055799;28;20468;-59
2023/09/02 05:48:02;;;;;;;5.93;4.67;;;16.80;99.90;;;;;;5055839;28;20468;-59
2023/09/02 05:50:29;;;;;;;4.40;4.00;;;16.80;99.90;;;;;;5055789;28;20450;-59
2023/09/02 05:52:56;;;;;;;4.87;4.47;;;16.70;99.90;;;;;;5061817;28;20534;-60
2023/09/02 05:55:24;;;;;;;4.80;4.30;;;16.80;99.90;;;;;;5061998;28;20451;-59
2023/09/02 05:57:50;;;;;;;5.07;4.67;;;16.80;99.90;;;;;;5056187;28;20460;-61
2023/09/02 06:00:17;;;;;;;5.30;4.80;;;16.80;99.90;;;;;;5055831;28;20820;-61
2023/09/02 06:02:44;;;;;;;5.63;5.10;;;16.90;99.90;;;;;;5055921;28;20441;-61
2023/09/02 06:05:11;;;;;;;4.57;4.17;;;17.00;99.90;;;;;;5055953;28;20453;-62
2023/09/02 06:07:37;;;;;;;5.10;4.70;;;17.10;99.90;;;;;;5071083;28;20474;-61
2023/09/02 06:10:05;;;;;;;5.20;4.80;;;17.30;99.90;;;;;;5072918;28;20456;-59
2023/09/02 06:12:33;;;;;;;6.03;4.70;;;17.50;99.90;;;;;;5055411;28;20480;-59
2023/09/02 06:15:00;;;;;;;5.43;5.00;;;17.60;99.90;;;;;;5054998;28;20451;-59
2023/09/02 06:17:30;;;;;;;4.33;3.93;;;17.70;99.90;;;;;;5069518;28;20524;-60
2023/09/02 06:19:57;;;;;;;5.33;4.60;;;17.70;99.90;;;;;;5075094;28;20446;-60
2023/09/02 06:22:24;;;;;;;4.40;4.00;;;17.70;99.90;;;;;;5074676;28;20443;-60
2023/09/02 06:24:53;;;;;;;5.50;5.00;;;17.80;99.90;;;;;;5074821;28;20937;-60
2023/09/02 06:27:20;;;;;;;5.43;4.90;;;17.80;99.90;;;;;;5060154;28;20832;-60
2023/09/02 06:29:48;;;;;;;5.30;4.90;;;17.80;99.90;;;;;;5054111;28;20444;-60
2023/09/02 06:32:15;;;;;;;4.67;4.27;;;17.80;99.90;;;;;;5054470;28;20476;-60
2023/09/02 06:34:41;;;;;;;7.43;4.80;;;17.80;99.90;;;;;;5053550;28;20440;-60
2023/09/02 06:37:08;;;;;;;4.87;4.47;;;17.90;99.90;;;;;;5054688;28;20464;-60
2023/09/02 06:39:35;;;;;;;4.30;3.90;;;18.00;99.90;;;;;;5054509;28;20452;-60
2023/09/02 06:42:02;;;;;;;5.10;4.33;;;18.10;99.90;;;;;;5054696;28;20440;-59
2023/09/02 06:44:29;;;;;;;5.27;3.90;;;18.20;99.90;;;;;;5060443;28;20443;-58
2023/09/02 06:46:57;;;;;;;6.07;4.93;;;18.30;99.90;;;;;;5072586;28;20471;-61
2023/09/02 06:49:24;;;;;;;6.23;4.83;;;18.40;99.90;;;;;;5055380;28;20444;-61
2023/09/02 06:51:51;;;;;;;4.83;4.43;;;18.50;99.90;;;;;;5054100;28;20476;-61
2023/09/02 06:54:17;;;;;;;5.70;5.20;;;18.60;99.90;;;;;;5054294;28;20432;-60
2023/09/02 06:56:45;;;;;;;6.47;5.87;;;18.70;99.90;;;;;;5053995;28;20462;-62
2023/09/02 06:59:11;;;;;;;6.60;5.00;;;18.70;99.90;;;;;;5034224;28;20445;-61
2023/09/02 07:01:38;;;;;;;6.10;5.60;;;18.70;99.90;;;;;;5050068;28;20440;-61
2023/09/02 07:04:06;;;;;;;6.63;5.90;;;18.80;99.90;;;;;;5054725;28;20451;-60
2023/09/02 07:06:33;;;;;;;7.50;6.43;;;18.90;99.90;;;;;;5053924;28;20444;-61
2023/09/02 07:09:00;;;;;;;7.10;6.40;;;18.90;99.90;;;;;;5054371;28;20532;-60
2023/09/02 07:11:27;;;;;;;8.03;7.23;;;19.00;99.90;;;;;;5054353;28;20487;-61
2023/09/02 07:13:53;;;;;;;8.23;7.20;;;19.00;99.90;;;;;;5054473;28;20440;-59
2023/09/02 07:16:21;;;;;;;8.17;7.37;;;19.10;99.90;;;;;;5060637;28;20443;-61
2023/09/02 07:18:47;;;;;;;8.73;7.93;;;19.20;99.90;;;;;;5073519;28;20951;-60
2023/09/02 07:21:21;;;;;;;9.70;8.03;;;19.30;99.90;;;;;;5074209;28;20936;-61
2023/09/02 07:23:48;;;;;;;10.33;7.07;;;19.40;99.90;;;;;;5074588;28;20455;-60
2023/09/02 07:26:15;;;;;;;11.67;9.90;;;19.50;99.90;;;;;;5067931;28;20840;-62
2023/09/02 07:28:42;;;;;;;11.30;8.63;;;19.60;99.90;;;;;;5054692;28;20450;-60
2023/09/02 07:31:09;;;;;;;9.17;8.27;;;19.70;99.90;;;;;;5054322;28;20947;-61
2023/09/02 07:33:37;;;;;;;8.83;7.37;;;19.90;99.90;;;;;;5054285;28;20470;-60
2023/09/02 07:36:08;;;;;;;9.33;8.10;;;20.00;99.90;;;;;;5053839;28;20982;-59
2023/09/02 07:38:37;;;;;;;8.77;7.87;;;20.20;99.90;;;;;;5054204;28;20559;-61
2023/09/02 07:41:03;;;;;;;8.53;7.70;;;20.40;99.90;;;;;;5054780;28;20531;-61
2023/09/02 07:43:30;;;;;;;8.87;7.97;;;20.60;99.90;;;;;;5054273;28;20867;-59
2023/09/02 07:45:58;;;;;;;9.93;7.83;;;20.80;99.90;;;;;;5057035;28;20456;-61
2023/09/02 07:48:25;;;;;;;7.87;7.17;;;21.00;99.90;;;;;;5073625;28;20502;-61
2023/09/02 07:50:52;;;;;;;9.70;7.17;;;21.20;99.90;;;;;;5055462;28;20486;-61
2023/09/02 07:53:19;;;;;;;8.07;7.27;;;21.30;99.90;;;;;;5054535;28;20527;-59
2023/09/02 07:55:47;;;;;;;7.97;6.70;;;21.50;99.90;;;;;;5055122;28;20446;-59
2023/09/02 07:58:14;;;;;;;8.60;6.13;;;21.80;99.90;;;;;;5074091;28;20462;-62
2023/09/02 08:00:42;;;;;;;7.07;6.33;;;21.90;99.90;;;;;;5073429;28;20504;-61
2023/09/02 08:03:09;;;;;;;6.93;6.33;;;22.10;99.90;;;;;;5073915;28;20447;-61
2023/09/02 08:05:38;;;;;;;8.00;6.93;;;22.10;99.90;;;;;;5074088;28;20522;-64
2023/09/02 08:08:06;;;;;;;9.33;6.87;;;22.10;99.90;;;;;;5034106;28;20473;-60
2023/09/02 08:10:33;;;;;;;7.87;6.93;;;22.00;99.90;;;;;;5050018;28;20521;-60
2023/09/02 08:13:01;;;;;;;10.70;7.23;;;21.90;99.90;;;;;;5053606;28;20486;-59
2023/09/02 08:15:28;;;;;;;10.70;8.77;;;21.80;99.90;;;;;;5054515;28;20523;-60
2023/09/02 08:17:55;;;;;;;7.53;6.80;;;21.60;99.90;;;;;;5053851;28;20475;-61
2023/09/02 08:20:22;;;;;;;8.47;7.67;;;21.50;99.90;;;;;;5053248;28;20450;-61
2023/09/02 08:22:49;;;;;;;8.40;7.60;;;21.30;99.90;;;;;;5053138;28;20443;-63
2023/09/02 08:25:16;;;;;;;9.07;7.60;;;21.20;99.90;;;;;;5053449;28;20547;-63
2023/09/02 08:27:45;;;;;;;8.20;6.60;;;21.10;99.90;;;;;;5069846;28;20471;-62
2023/09/02 08:30:14;;;;;;;9.23;7.13;;;21.20;99.90;;;;;;5073361;28;20504;-60
2023/09/02 08:32:42;;;;;;;6.10;5.50;;;21.30;99.90;;;;;;5073333;28;20486;-62
2023/09/02 08:35:09;;;;;;;7.20;6.50;;;21.40;99.90;;;;;;5073364;28;20451;-60
2023/09/02 08:37:37;;;;;;;12.27;6.73;;;21.50;99.90;;;;;;5058364;28;20474;-61
2023/09/02 08:40:04;;;;;;;6.50;5.93;;;21.50;99.90;;;;;;5053200;28;20483;-61
2023/09/02 08:42:35;;;;;;;6.80;6.20;;;21.50;99.90;;;;;;5053683;28;20457;-62
2023/09/02 08:45:08;;;;;;;6.47;5.17;;;21.60;99.90;;;;;;5053051;28;20501;-60
2023/09/02 08:47:39;;;;;;;6.70;6.00;;;21.90;99.80;;;;;;5052698;28;20860;-61
2023/09/02 08:50:07;;;;;;;5.17;4.67;;;22.30;98.70;;;;;;5053592;28;20536;-62
2023/09/02 08:52:34;;;;;;;5.90;4.97;;;22.60;97.40;;;;;;5053167;28;20567;-61
2023/09/02 08:55:02;;;;;;;4.80;4.40;;;22.80;96.40;;;;;;5053221;28;20439;-60
2023/09/02 08:57:29;;;;;;;5.20;4.63;;;22.90;95.30;;;;;;5068762;28;20477;-61
2023/09/02 08:59:56;;;;;;;4.70;4.20;;;23.00;94.40;;;;;;5078084;28;20446;-61
2023/09/02 09:02:23;;;;;;;4.50;4.07;;;23.20;93.50;;;;;;5077149;28;20449;-63
2023/09/02 09:04:52;;;;;;;5.87;4.40;;;23.20;92.60;;;;;;5077683;28;20438;-62
2023/09/02 09:07:20;;;;;;;5.53;4.50;;;23.20;92.20;;;;;;5064284;28;20529;-63
2023/09/02 09:09:48;;;;;;;5.63;4.67;;;23.20;91.90;;;;;;5056941;28;20439;-62
2023/09/02 09:12:17;;;;;;;4.50;3.17;;;23.20;91.40;;;;;;5057236;28;20486;-63
2023/09/02 09:14:47;;;;;;;4.30;3.90;;;23.30;91.20;;;;;;5061822;28;20967;-61
2023/09/02 09:17:14;;;;;;;3.63;3.30;;;23.40;90.80;;;;;;5076986;28;20459;-62
2023/09/02 09:19:41;;;;;;;3.90;3.17;;;23.40;90.50;;;;;;5076600;28;21004;-60
2023/09/02 09:22:09;;;;;;;5.30;3.27;;;23.40;88.80;;;;;;5077223;28;20442;-63
2023/09/02 09:24:36;;;;;;;3.10;2.80;;;23.40;88.60;;;;;;5074544;28;20447;-63
2023/09/02 09:27:06;;;;;;;3.50;2.93;;;23.40;87.30;;;;;;5056714;28;20467;-62
2023/09/02 09:29:40;;;;;;;3.40;3.00;;;23.60;85.80;;;;;;5056205;28;20448;-63
2023/09/02 09:32:11;;;;;;;2.93;2.60;;;23.80;84.40;;;;;;5056169;28;20897;-63
2023/09/02 09:34:39;;;;;;;3.53;2.70;;;24.10;82.50;;;;;;5056148;28;21029;-63
2023/09/02 09:37:08;;;;;;;5.23;2.50;;;24.20;81.10;;;;;;5056021;28;21039;-62
2023/09/02 09:39:43;;;;;;;4.70;3.17;;;24.30;80.30;;;;;;5056337;28;20459;-63
2023/09/02 09:42:13;;;;;;;2.50;2.30;;;24.40;80.10;;;;;;5056270;28;20439;-63
2023/09/02 09:44:55;;;;;;;2.60;2.17;;;24.60;79.20;;;;;;5056175;28;20472;-62
2023/09/02 09:47:23;;;;;;;3.53;2.80;;;24.70;78.00;;;;;;5055903;28;20857;-61
2023/09/02 09:49:50;;;;;;;4.20;2.80;;;24.60;76.90;;;;;;5055974;28;20509;-61
2023/09/02 09:52:21;;;;;;;3.87;3.27;;;24.40;77.50;;;;;;5055616;28;20931;-62
2023/09/02 09:54:51;;;;;;;3.80;3.50;;;24.40;78.20;;;;;;5060145;28;20478;-62
2023/09/02 09:57:33;;;;;;;3.60;3.30;;;24.50;77.60;;;;;;5075431;28;20463;-62
2023/09/02 10:00:00;;;;;;;5.17;3.83;;;24.80;76.80;;;;;;5075505;28;20913;-61
2023/09/02 10:02:27;;;;;;;3.50;3.20;;;24.90;75.70;;;;;;5076490;28;20805;-62
2023/09/02 10:04:55;;;;;;;4.73;4.10;;;25.00;74.80;;;;;;5070972;28;20530;-63
2023/09/02 10:07:25;;;;;;;8.70;4.63;;;25.00;74.70;;;;;;5055733;28;20777;-65
2023/09/02 10:09:55;;;;;;;3.83;3.33;;;25.10;75.00;;;;;;5056056;28;20802;-62
2023/09/02 10:12:22;;;;;;;3.43;3.13;;;25.30;74.30;;;;;;5055758;28;20570;-64
2023/09/02 10:14:50;;;;;;;3.97;2.90;;;25.50;74.00;;;;;;5059846;28;20442;-64
2023/09/02 10:17:18;;;;;;;3.63;3.33;;;25.70;72.60;;;;;;5075605;28;21233;-58
2023/09/02 10:19:46;;;;;;;4.20;3.03;;;25.70;71.60;;;;;;5075731;28;20446;-60
2023/09/02 10:22:18;;;;;;;5.00;3.40;;;25.50;71.10;;;;;;5075145;28;20933;-62
2023/09/02 10:24:56;;;;;;;3.97;3.60;;;25.20;71.70;;;;;;5058538;28;20444;-62
2023/09/02 10:27:25;;;;;;;5.00;4.03;;;25.20;72.30;;;;;;5055602;28;20467;-64
2023/09/02 10:29:58;;;;;;;3.60;3.30;;;25.30;72.00;;;;;;5055656;28;20447;-64
2023/09/02 10:32:29;;;;;;;3.90;3.43;;;25.50;71.70;;;;;;5055076;28;20977;-63
2023/09/02 10:35:05;;;;;;;4.30;3.90;;;25.60;71.30;;;;;;5073304;28;20976;-63
2023/09/02 10:37:42;;;;;;;4.20;3.80;;;25.60;71.20;;;;;;5075171;28;20454;-63
2023/09/02 10:40:15;;;;;;;5.83;3.43;;;25.60;71.20;;;;;;5074870;28;20441;-63
2023/09/02 10:42:44;;;;;;;3.10;2.80;;;25.50;71.10;;;;;;5074257;28;20893;-62
2023/09/02 10:45:11;;;;;;;4.10;3.17;;;25.30;71.50;;;;;;5034657;28;20447;-62
2023/09/02 10:47:39;;;;;;;3.73;3.43;;;25.00;72.30;;;;;;5034702;28;20487;-63
2023/09/02 10:50:09;;;;;;;4.23;3.80;;;24.90;72.80;;;;;;5034930;28;20444;-62
2023/09/02 10:52:36;;;;;;;3.20;2.90;;;24.70;72.50;;;;;;5034986;28;20492;-64
2023/09/02 10:55:04;;;;;;;3.97;3.10;;;24.70;72.90;;;;;;5072098;28;20443;-62
2023/09/02 10:57:32;;;;;;;6.80;6.10;;;24.70;72.90;;;;;;5074543;28;20463;-64
2023/09/02 11:00:17;;;;;;;3.43;3.10;;;24.70;72.80;;;;;;5074683;28;20449;-64
2023/09/02 11:02:45;;;;;;;1.60;1.50;;;24.80;72.90;;;;;;5074113;28;20465;-61
2023/09/02 11:05:12;;;;;;;2.30;2.10;;;24.60;72.30;;;;;;5073935;28;20477;-63
2023/09/02 11:07:42;;;;;;;2.70;2.50;;;24.30;73.10;;;;;;5075055;28;20471;-62
2023/09/02 11:10:10;;;;;;;2.40;2.00;;;24.30;73.70;;;;;;5074321;28;20937;-60
2023/09/02 11:13:05;;;;;;;4.53;2.17;;;24.30;73.60;;;;;;5074524;28;20479;-61
2023/09/02 11:15:34;;;;;;;3.00;2.70;;;24.40;73.40;;;;;;5033973;28;20954;-62
2023/09/02 11:18:32;;;;;;;3.07;2.77;;;24.20;73.70;;;;;;5034386;28;20464;-63
2023/09/02 11:20:58;;;;;;;12.07;10.90;;;24.20;74.60;;;;;;5034288;28;21016;-64
2023/09/02 11:23:25;;;;;;;12.70;10.97;;;24.30;74.50;;;;;;5043997;28;20987;-64
2023/09/02 11:26:07;;;;;;;11.80;10.60;;;24.40;73.90;;;;;;5074438;28;20439;-63
2023/09/02 11:28:35;;;;;;;10.87;9.77;;;24.40;73.60;;;;;;5074353;28;20467;-62
2023/09/02 11:31:09;;;;;;;4.03;3.63;;;24.50;72.90;;;;;;5074136;28;20944;-63
2023/09/02 11:33:37;;;;;;;3.10;2.50;;;24.60;72.40;;;;;;5054440;28;20472;-63
2023/09/02 11:36:05;;;;;;;2.40;2.20;;;24.70;71.60;;;;;;5055294;28;20458;-61
2023/09/02 11:38:33;;;;;;;2.60;2.40;;;24.80;70.60;;;;;;5054794;28;20471;-61
2023/09/02 11:41:01;;;;;;;3.13;2.83;;;24.90;70.10;;;;;;5054985;28;20804;-64
2023/09/02 11:43:47;;;;;;;3.30;2.40;;;24.80;69.70;;;;;;5072638;28;20448;-62
2023/09/02 11:46:23;;;;;;;2.63;2.30;;;24.70;69.60;;;;;;5075136;28;20451;-64
2023/09/02 11:48:53;;;;;;;2.07;1.70;;;24.50;70.00;;;;;;5074676;28;20399;-65
2023/09/02 11:51:23;;;;;;;2.90;2.60;;;24.60;69.90;;;;;;5074343;28;20779;-66
2023/09/02 11:53:56;;;;;;;2.63;2.20;;;24.80;69.50;;;;;;5055397;28;20479;-62
2023/09/02 11:56:24;;;;;;;2.13;1.93;;;25.10;69.00;;;;;;5053958;28;20883;-62
2023/09/02 11:58:51;;;;;;;2.90;2.40;;;25.40;67.80;;;;;;5054412;28;20447;-61
2023/09/02 12:01:19;;;;;;;2.80;2.30;;;25.60;67.00;;;;;;5054443;28;20540;-64
2023/09/02 12:03:48;;;;;;;2.37;2.00;;;25.70;66.70;;;;;;5034652;28;20440;-62
2023/09/02 12:06:14;;;;;;;3.13;1.90;;;25.70;66.20;;;;;;5034242;28;20448;-66
2023/09/02 12:08:41;;;;;;;1.90;1.80;;;25.60;66.60;;;;;;5033955;28;20445;-62
2023/09/02 12:11:08;;;;;;;2.97;2.67;;;25.50;66.50;;;;;;5034339;28;20448;-62
2023/09/02 12:13:35;;;;;;;2.30;2.10;;;25.30;66.80;;;;;;5070661;28;21014;-63
2023/09/02 12:16:02;;;;;;;1.70;1.60;;;25.30;67.00;;;;;;5073702;28;20431;-64
2023/09/02 12:20:58;;;;;;;2.50;2.30;;;25.80;65.60;;;;;;5092179;28;20962;-60
2023/09/02 12:23:25;;;;;;;2.93;2.07;;;25.90;65.00;;;;;;5111031;28;20437;-60
2023/09/02 12:26:04;;;;;;;2.37;2.07;;;26.00;64.20;;;;;;5114731;28;20441;-61
2023/09/02 12:28:31;;;;;;;2.50;2.30;;;25.90;64.00;;;;;;5112930;28;21000;-60
2023/09/02 12:30:57;;;;;;;2.20;2.00;;;25.90;64.00;;;;;;5094328;28;20533;-59
2023/09/02 12:33:26;;;;;;;2.23;2.03;;;25.70;64.10;;;;;;5080159;28;20479;-58
2023/09/02 12:35:52;;;;;;;2.60;2.07;;;25.50;64.40;;;;;;5078035;28;20443;-60
2023/09/02 12:38:21;;;;;;;2.00;1.80;;;25.40;64.90;;;;;;5077683;28;20517;-59
2023/09/02 12:40:55;;;;;;;2.30;2.10;;;25.50;64.80;;;;;;5082719;28;20442;-61
2023/09/02 12:43:26;;;;;;;2.83;2.53;;;25.50;64.60;;;;;;5083431;28;20960;-60
2023/09/02 12:45:54;;;;;;;3.20;2.13;;;25.50;64.60;;;;;;5077158;28;20534;-60
2023/09/02 12:48:20;;;;;;;3.70;2.60;;;25.60;64.40;;;;;;5077656;28;20453;-58
2023/09/02 12:50:47;;;;;;;3.67;2.70;;;25.50;64.00;;;;;;5085411;28;20441;-58
2023/09/02 12:53:14;;;;;;;3.10;2.80;;;25.30;63.70;;;;;;5097202;28;20473;-59
2023/09/02 12:55:43;;;;;;;2.63;2.43;;;25.10;63.70;;;;;;5097260;28;20468;-60
2023/09/02 12:58:11;;;;;;;2.50;2.30;;;24.80;63.60;;;;;;5097026;28;20814;-60